Time,TemperatureF,DewpointF,PressureIn,WindDirection,WindDirectionDegrees,WindSpeedMPH,WindSpeedGustMPH,Humidity,HourlyPrecipIn,Conditions,Clouds,dailyrainin,SolarRadiationWatts/m^2,SoftwareType,DateUTC
2013-01-20 00:10:00,20.2,17.0,23.13,ENE,71,4.0,5.0,87,0.00,,,0.00,0,Wunderground v.1.15,2013-01-20 05:10:00,
2013-01-20 00:20:00,20.2,17.0,23.13,ENE,62,4.0,5.0,87,0.00,,,0.00,0,Wunderground v.1.15,2013-01-20 05:20:00,
2013-01-20 00:40:00,20.4,17.1,23.12,ENE,67,6.0,6.0,87,0.06,,,0.02,0,Wunderground v.1.15,2013-01-20 05:40:00,
2013-01-20 00:50:00,20.4,17.1,23.12,ENE,63,6.0,6.0,87,0.05,,,0.03,0,Wunderground v.1.15,2013-01-20 05:50:00,
2013-01-20 01:10:00,20.7,17.7,23.11,NE,35,4.0,4.0,88,0.00,,,0.04,0,Wunderground v.1.15,2013-01-20 06:10:00,
2013-01-20 01:20:00,20.9,17.9,23.11,ENE,64,5.0,5.0,88,0.06,,,0.05,0,Wunderground v.1.15,2013-01-20 06:20:00,
2013-01-20 01:30:00,21.0,18.0,23.11,NE,52,4.0,6.0,88,0.04,,,0.05,0,Wunderground v.1.15,2013-01-20 06:30:00,
2013-01-20 01:40:00,21.2,18.2,23.11,NE,52,4.0,4.0,88,0.00,,,0.06,0,Wunderground v.1.15,2013-01-20 06:40:00,
2013-01-20 01:50:00,21.3,18.3,23.11,NE,56,4.0,5.0,88,0.07,,,0.06,0,Wunderground v.1.15,2013-01-20 06:50:00,
2013-01-20 02:00:00,21.5,18.5,23.11,ENE,65,3.0,3.0,88,0.05,,,0.07,0,Wunderground v.1.15,2013-01-20 07:00:00,
2013-01-20 02:10:00,21.8,18.8,23.11,ENE,62,2.0,2.0,88,0.07,,,0.08,0,Wunderground v.1.15,2013-01-20 07:10:00,
2013-01-20 02:20:00,22.0,19.3,23.11,ENE,57,3.0,4.0,89,0.06,,,0.09,0,Wunderground v.1.15,2013-01-20 07:20:00,
2013-01-20 02:30:00,22.1,19.4,23.11,ENE,61,4.0,4.0,89,0.04,,,0.09,0,Wunderground v.1.15,2013-01-20 07:30:00,
2013-01-20 02:40:00,22.4,19.6,23.10,NE,55,4.0,4.0,89,0.07,,,0.10,0,Wunderground v.1.15,2013-01-20 07:40:00,
2013-01-20 02:50:00,22.8,20.0,23.10,NE,55,3.0,5.0,89,0.06,,,0.11,0,Wunderground v.1.15,2013-01-20 07:50:00,
2013-01-20 03:00:00,23.5,21.0,23.10,ENE,66,4.0,4.0,90,0.08,,,0.12,0,Wunderground v.1.15,2013-01-20 08:00:00,
2013-01-20 03:10:00,24.3,21.8,23.10,ENE,67,4.0,4.0,90,0.08,,,0.13,0,Wunderground v.1.15,2013-01-20 08:10:00,
2013-01-20 03:20:00,24.7,22.2,23.09,ENE,62,4.0,5.0,90,0.07,,,0.13,0,Wunderground v.1.15,2013-01-20 08:20:00,
2013-01-20 03:40:00,25.0,22.5,23.09,ENE,66,3.0,4.0,90,0.04,,,0.14,0,Wunderground v.1.15,2013-01-20 08:40:00,
2013-01-20 03:50:00,25.0,22.5,23.08,NE,53,5.0,5.0,90,0.00,,,0.14,0,Wunderground v.1.15,2013-01-20 08:50:00,
2013-01-20 04:00:00,24.6,22.1,23.08,NE,53,4.0,4.0,90,0.00,,,0.14,0,Wunderground v.1.15,2013-01-20 09:00:00,
2013-01-20 04:10:00,24.3,21.8,23.07,ENE,61,4.0,4.0,90,0.00,,,0.14,0,Wunderground v.1.15,2013-01-20 09:10:00,
2013-01-20 04:20:00,24.3,21.8,23.07,ENE,61,3.0,3.0,90,0.00,,,0.14,0,Wunderground v.1.15,2013-01-20 09:20:00,
2013-01-20 04:30:00,24.3,21.8,23.07,ENE,60,1.0,1.0,90,0.00,,,0.14,0,Wunderground v.1.15,2013-01-20 09:30:00,
2013-01-20 04:40:00,24.7,22.2,23.07,NNW,343,1.0,2.0,90,0.00,,,0.14,0,Wunderground v.1.15,2013-01-20 09:40:00,
2013-01-20 04:50:00,25.0,22.7,23.06,ENE,57,1.0,2.0,91,0.00,,,0.14,0,Wunderground v.1.15,2013-01-20 09:50:00,
2013-01-20 05:01:00,25.3,23.0,23.06,ESE,116,2.0,2.0,91,0.00,,,0.14,0,Wunderground v.1.15,2013-01-20 10:01:00,
2013-01-20 05:10:00,25.5,23.0,23.06,ESE,115,2.0,3.0,90,0.00,,,0.14,0,Wunderground v.1.15,2013-01-20 10:10:00,
2013-01-20 05:20:00,25.6,23.3,23.05,ESE,115,2.0,2.0,91,0.00,,,0.14,0,Wunderground v.1.15,2013-01-20 10:20:00,
2013-01-20 05:31:00,25.9,23.6,23.05,ESE,115,1.0,1.0,91,0.00,,,0.14,0,Wunderground v.1.15,2013-01-20 10:31:00,
2013-01-20 05:40:00,26.3,24.0,23.05,ESE,115,0.0,1.0,91,0.00,,,0.15,0,Wunderground v.1.15,2013-01-20 10:40:00,
2013-01-20 05:50:00,26.8,24.5,23.04,ESE,115,0.0,0.0,91,0.00,,,0.15,0,Wunderground v.1.15,2013-01-20 10:50:00,
2013-01-20 06:10:00,31.7,29.9,23.04,South,172,4.0,4.0,93,0.00,,,0.15,0,Wunderground v.1.15,2013-01-20 11:10:00,
2013-01-20 06:20:00,32.6,29.4,23.03,South,178,6.0,8.0,88,0.00,,,0.15,0,Wunderground v.1.15,2013-01-20 11:20:00,
2013-01-20 06:40:00,34.0,30.0,23.03,SSW,194,6.0,6.0,85,0.00,,,0.15,0,Wunderground v.1.15,2013-01-20 11:40:00,
2013-01-20 06:50:00,35.2,30.6,23.03,SSW,205,7.0,7.0,83,0.00,,,0.15,0,Wunderground v.1.15,2013-01-20 11:50:00,
2013-01-20 07:00:00,35.8,30.5,23.03,SSW,213,6.0,6.0,81,0.00,,,0.15,0,Wunderground v.1.15,2013-01-20 12:00:00,
2013-01-20 07:10:00,36.5,31.2,23.03,SSW,200,6.0,7.0,81,0.00,,,0.15,0,Wunderground v.1.15,2013-01-20 12:10:00,
2013-01-20 07:20:00,36.1,30.8,23.04,SW,221,6.0,6.0,81,0.00,,,0.15,0,Wunderground v.1.15,2013-01-20 12:20:00,
2013-01-20 07:40:00,37.4,32.7,23.03,SSW,194,7.0,7.0,83,0.00,,,0.16,0,Wunderground v.1.15,2013-01-20 12:40:00,
2013-01-20 07:50:00,37.9,33.5,23.03,WSW,255,12.0,12.0,84,0.56,,,0.17,0,Wunderground v.1.15,2013-01-20 12:50:00,
2013-01-20 08:10:00,36.2,32.7,23.03,SW,226,11.0,11.0,87,0.09,,,0.23,12,Wunderground v.1.15,2013-01-20 13:10:00,
2013-01-20 08:20:00,36.1,32.3,23.04,SSW,211,12.0,12.0,86,0.04,,,0.23,12,Wunderground v.1.15,2013-01-20 13:20:00,
2013-01-20 08:40:00,35.7,31.6,23.03,South,171,9.0,9.0,85,0.00,,,0.23,26,Wunderground v.1.15,2013-01-20 13:40:00,
2013-01-20 08:50:00,35.5,31.1,23.04,SSW,211,10.0,14.0,84,0.00,,,0.23,49,Wunderground v.1.15,2013-01-20 13:50:00,
2013-01-20 09:10:00,35.7,30.7,23.04,SW,236,9.0,10.0,82,0.00,,,0.23,144,Wunderground v.1.15,2013-01-20 14:10:00,
2013-01-20 09:20:00,35.7,30.7,23.04,SW,227,10.0,10.0,82,0.00,,,0.23,69,Wunderground v.1.15,2013-01-20 14:20:00,
2013-01-20 09:31:00,35.5,30.8,23.04,WSW,255,9.0,14.0,83,0.00,,,0.23,44,Wunderground v.1.15,2013-01-20 14:31:00,
2013-01-20 09:40:00,35.5,30.8,23.05,West,261,8.0,14.0,83,0.00,,,0.23,88,Wunderground v.1.15,2013-01-20 14:40:00,
2013-01-20 09:50:00,35.5,30.5,23.05,SW,217,8.0,9.0,82,0.00,,,0.23,49,Wunderground v.1.15,2013-01-20 14:50:00,
2013-01-20 10:00:00,33.9,29.9,23.05,SW,216,10.0,14.0,85,0.00,,,0.24,63,Wunderground v.1.15,2013-01-20 15:00:00,
2013-01-20 10:10:00,33.9,29.9,23.05,SW,225,11.0,13.0,85,0.00,,,0.24,88,Wunderground v.1.15,2013-01-20 15:10:00,
2013-01-20 10:20:00,33.9,29.0,23.05,SW,217,10.0,11.0,82,0.00,,,0.24,97,Wunderground v.1.15,2013-01-20 15:20:00,
2013-01-20 10:40:00,33.4,28.5,23.05,WNW,291,9.0,9.0,82,0.00,,,0.24,258,Wunderground v.1.15,2013-01-20 15:40:00,
2013-01-20 10:50:00,33.0,28.1,23.05,SW,234,10.0,13.0,82,0.00,,,0.24,213,Wunderground v.1.15,2013-01-20 15:50:00,
2013-01-20 11:10:00,32.6,27.7,23.06,SW,236,10.0,10.0,82,0.00,,,0.24,113,Wunderground v.1.15,2013-01-20 16:10:00,
2013-01-20 11:20:00,32.0,28.0,23.06,West,259,10.0,22.0,85,0.00,,,0.24,163,Wunderground v.1.15,2013-01-20 16:20:00,
2013-01-20 11:30:00,32.0,28.6,23.06,SSW,210,10.0,10.0,87,0.00,,,0.25,192,Wunderground v.1.15,2013-01-20 16:30:00,
2013-01-20 11:40:00,32.4,28.1,23.06,West,269,9.0,9.0,84,0.00,,,0.25,202,Wunderground v.1.15,2013-01-20 16:40:00,
2013-01-20 11:50:00,33.0,27.8,23.06,WNW,298,9.0,13.0,81,0.00,,,0.25,213,Wunderground v.1.15,2013-01-20 16:50:00,
2013-01-20 12:10:00,33.7,26.3,23.06,West,269,9.0,18.0,74,0.00,,,0.25,281,Wunderground v.1.15,2013-01-20 17:10:00,
2013-01-20 12:20:00,33.9,26.2,23.06,West,277,10.0,10.0,73,0.00,,,0.25,230,Wunderground v.1.15,2013-01-20 17:20:00,
2013-01-20 12:30:00,33.4,26.0,23.06,West,273,9.0,9.0,74,0.00,,,0.25,120,Wunderground v.1.15,2013-01-20 17:30:00,
2013-01-20 12:40:00,31.7,25.3,23.06,WNW,298,9.0,9.0,77,0.00,,,0.25,81,Wunderground v.1.15,2013-01-20 17:40:00,
2013-01-20 12:50:00,29.7,24.6,23.07,North,351,10.0,10.0,81,0.00,,,0.25,127,Wunderground v.1.15,2013-01-20 17:50:00,
2013-01-20 13:10:00,30.6,20.2,23.07,WNW,283,10.0,10.0,65,0.00,,,0.25,105,Wunderground v.1.15,2013-01-20 18:10:00,
2013-01-20 13:20:00,30.2,18.4,23.08,West,272,10.0,10.0,61,0.00,,,0.25,113,Wunderground v.1.15,2013-01-20 18:20:00,
2013-01-20 13:40:00,29.6,17.8,23.08,West,265,8.0,11.0,61,0.00,,,0.25,135,Wunderground v.1.15,2013-01-20 18:40:00,
2013-01-20 13:50:00,29.2,16.2,23.08,WSW,254,10.0,18.0,58,0.00,,,0.25,151,Wunderground v.1.15,2013-01-20 18:50:00,
2013-01-20 14:10:00,27.7,11.9,23.09,WNW,290,13.0,22.0,51,0.00,,,0.25,462,Wunderground v.1.15,2013-01-20 19:10:00,
2013-01-20 14:20:00,27.4,11.2,23.09,West,267,14.0,14.0,50,0.00,,,0.25,199,Wunderground v.1.15,2013-01-20 19:20:00,
2013-01-20 14:40:00,26.2,8.2,23.10,West,275,12.0,15.0,46,0.00,,,0.25,274,Wunderground v.1.15,2013-01-20 19:40:00,
2013-01-20 14:50:00,25.7,9.2,23.10,West,266,11.0,11.0,49,0.00,,,0.25,290,Wunderground v.1.15,2013-01-20 19:50:00,
2013-01-20 15:00:00,23.4,10.0,23.10,WNW,292,10.0,11.0,56,0.00,,,0.25,211,Wunderground v.1.15,2013-01-20 20:00:00,
2013-01-20 15:10:00,22.4,7.4,23.11,NW,306,10.0,10.0,52,0.00,,,0.25,174,Wunderground v.1.15,2013-01-20 20:10:00,
2013-01-20 15:20:00,21.5,7.0,23.12,WNW,286,11.0,11.0,53,0.00,,,0.25,179,Wunderground v.1.15,2013-01-20 20:20:00,
2013-01-20 15:30:00,19.8,5.4,23.12,NNW,348,10.0,10.0,53,0.00,,,0.25,84,Wunderground v.1.15,2013-01-20 20:30:00,
2013-01-20 15:40:00,19.1,4.3,23.12,WNW,299,9.0,12.0,52,0.00,,,0.25,141,Wunderground v.1.15,2013-01-20 20:40:00,
2013-01-20 15:50:00,18.0,3.3,23.13,WNW,282,9.0,13.0,52,0.00,,,0.25,28,Wunderground v.1.15,2013-01-20 20:50:00,
2013-01-20 16:01:00,16.9,1.9,23.13,WNW,294,10.0,10.0,51,0.00,,,0.25,26,Wunderground v.1.15,2013-01-20 21:01:00,
2013-01-20 16:10:00,16.0,1.0,23.13,SW,223,10.0,10.0,51,0.00,,,0.25,23,Wunderground v.1.15,2013-01-20 21:10:00,
2013-01-20 16:20:00,15.0,-0.3,23.14,West,270,10.0,10.0,50,0.00,,,0.25,16,Wunderground v.1.15,2013-01-20 21:20:00,
2013-01-20 16:30:00,13.9,-1.3,23.14,WNW,295,10.0,11.0,50,0.00,,,0.25,11,Wunderground v.1.15,2013-01-20 21:30:00,
2013-01-20 16:40:00,13.2,-1.6,23.15,NW,315,9.0,9.0,51,0.00,,,0.25,7,Wunderground v.1.15,2013-01-20 21:40:00,
2013-01-20 16:50:00,12.7,-2.5,23.15,WNW,283,11.0,11.0,50,0.00,,,0.25,0,Wunderground v.1.15,2013-01-20 21:50:00,
2013-01-20 17:10:00,11.8,-3.3,23.15,SSW,198,10.0,10.0,50,0.00,,,0.25,0,Wunderground v.1.15,2013-01-20 22:10:00,
2013-01-20 17:20:00,11.5,-3.6,23.15,NW,314,11.0,11.0,50,0.00,,,0.25,0,Wunderground v.1.15,2013-01-20 22:20:00,
2013-01-20 17:31:00,11.0,-3.6,23.15,NW,309,10.0,10.0,51,0.00,,,0.25,0,Wunderground v.1.15,2013-01-20 22:31:00,
2013-01-20 17:40:00,10.6,-3.2,23.16,NW,309,8.0,10.0,53,0.00,,,0.25,0,Wunderground v.1.15,2013-01-20 22:40:00,
2013-01-20 17:50:00,10.4,-3.0,23.16,WNW,292,7.0,7.0,54,0.00,,,0.25,0,Wunderground v.1.15,2013-01-20 22:50:00,
2013-01-20 18:00:00,10.3,-2.7,23.16,WSW,254,8.0,8.0,55,0.00,,,0.25,0,Wunderground v.1.15,2013-01-20 23:00:00,
2013-01-20 18:10:00,10.4,-3.0,23.16,West,259,9.0,11.0,54,0.00,,,0.25,0,Wunderground v.1.15,2013-01-20 23:10:00,
2013-01-20 18:20:00,10.4,-3.4,23.17,WNW,286,9.0,9.0,53,0.00,,,0.25,0,Wunderground v.1.15,2013-01-20 23:20:00,
2013-01-20 18:40:00,9.9,-3.8,23.17,NNW,336,10.0,10.0,53,0.00,,,0.25,0,Wunderground v.1.15,2013-01-20 23:40:00,
2013-01-20 18:50:00,9.8,-3.5,23.17,WNW,296,9.0,9.0,54,0.00,,,0.25,0,Wunderground v.1.15,2013-01-20 23:50:00,
2013-01-20 19:00:00,9.6,-3.7,23.17,WNW,303,9.0,11.0,54,0.00,,,0.25,0,Wunderground v.1.15,2013-01-21 00:00:00,
2013-01-20 19:10:00,9.4,-3.9,23.17,West,275,9.0,9.0,54,0.00,,,0.25,0,Wunderground v.1.15,2013-01-21 00:10:00,
2013-01-20 19:20:00,9.1,-4.2,23.17,NW,313,8.0,8.0,54,0.00,,,0.25,0,Wunderground v.1.15,2013-01-21 00:20:00,
2013-01-20 19:40:00,8.5,-4.4,23.18,WNW,286,7.0,8.0,55,0.00,,,0.25,0,Wunderground v.1.15,2013-01-21 00:40:00,
2013-01-20 19:50:00,8.3,-4.6,23.18,NNW,329,7.0,12.0,55,0.00,,,0.25,0,Wunderground v.1.15,2013-01-21 00:50:00,
2013-01-20 20:01:00,8.2,-4.7,23.18,West,274,7.0,10.0,55,0.00,,,0.25,0,Wunderground v.1.15,2013-01-21 01:01:00,
2013-01-20 20:10:00,8.0,-4.9,23.18,West,273,6.0,10.0,55,0.00,,,0.25,0,Wunderground v.1.15,2013-01-21 01:10:00,
2013-01-20 20:20:00,7.6,-4.9,23.18,NW,322,6.0,6.0,56,0.00,,,0.25,0,Wunderground v.1.15,2013-01-21 01:20:00,
2013-01-20 20:31:00,7.5,-4.9,23.18,WNW,300,6.0,6.0,56,0.00,,,0.25,0,Wunderground v.1.15,2013-01-21 01:31:00,
2013-01-20 20:40:00,7.3,-4.8,23.18,WNW,303,5.0,7.0,57,0.00,,,0.25,0,Wunderground v.1.15,2013-01-21 01:40:00,
2013-01-20 20:50:00,7.3,-5.1,23.19,NW,318,7.0,8.0,56,0.00,,,0.25,0,Wunderground v.1.15,2013-01-21 01:50:00,
2013-01-20 21:10:00,6.8,-6.0,23.19,NW,309,6.0,6.0,55,0.00,,,0.25,0,Wunderground v.1.15,2013-01-21 02:10:00,
2013-01-20 21:20:00,6.4,-6.7,23.19,West,263,8.0,8.0,54,0.00,,,0.25,0,Wunderground v.1.15,2013-01-21 02:20:00,
2013-01-20 21:30:00,6.0,-7.5,23.19,West,263,7.0,7.0,53,0.00,,,0.25,0,Wunderground v.1.15,2013-01-21 02:30:00,
2013-01-20 21:40:00,5.9,-7.6,23.19,WNW,299,8.0,11.0,53,0.00,,,0.25,0,Wunderground v.1.15,2013-01-21 02:40:00,
2013-01-20 21:50:00,5.5,-8.0,23.19,WNW,287,7.0,7.0,53,0.00,,,0.25,0,Wunderground v.1.15,2013-01-21 02:50:00,
2013-01-20 22:10:00,5.1,-8.3,23.19,WNW,285,7.0,8.0,53,0.00,,,0.25,0,Wunderground v.1.15,2013-01-21 03:10:00,
2013-01-20 22:20:00,4.9,-8.1,23.19,West,260,6.0,6.0,54,0.00,,,0.25,0,Wunderground v.1.15,2013-01-21 03:20:00,
2013-01-20 22:40:00,4.4,-8.6,23.20,West,274,5.0,8.0,54,0.00,,,0.25,0,Wunderground v.1.15,2013-01-21 03:40:00,
2013-01-20 22:50:00,4.2,-8.4,23.20,NW,311,6.0,6.0,55,0.00,,,0.25,0,Wunderground v.1.15,2013-01-21 03:50:00,
2013-01-20 23:00:00,4.0,-8.6,23.20,WNW,290,5.0,5.0,55,0.00,,,0.25,0,Wunderground v.1.15,2013-01-21 04:00:00,
2013-01-20 23:10:00,3.6,-8.6,23.20,West,273,3.0,3.0,56,0.00,,,0.25,0,Wunderground v.1.15,2013-01-21 04:10:00,
2013-01-20 23:20:00,3.4,-8.8,23.20,NW,308,5.0,8.0,56,0.00,,,0.25,0,Wunderground v.1.15,2013-01-21 04:20:00,
2013-01-20 23:40:00,2.9,-8.9,23.20,WNW,291,3.0,3.0,57,0.00,,,0.25,0,Wunderground v.1.15,2013-01-21 04:40:00,
2013-01-20 23:50:00,2.7,-9.1,23.20,WNW,290,4.0,4.0,57,0.00,,,0.25,0,Wunderground v.1.15,2013-01-21 04:50:00,